Angola, Kansas
Current Conditions -  °F | °C
As of 11:52 PM on Wednesday 17 Dec 2014 (Local Time) from KCFV Reporting Station
Haze Haze  
Wind Chill: -4°   Ceiling: 400
Heat Index:   Visibility: 2mi
Dew Point:   Wind: 8mph
Humidity: 100%   Direction: 60°ENE
Pressure: 30.2"   Gusts: NA
Location:  37.067°N, 95.5817°W
Report Text: KCFV 180552Z AUTO 06007KT 2SM BR BKN004 OVC013 00/00 A3020 RMK AO2 UPE20 SLP233 6//// I6003 T00000000 10000 20000 400111017 58009 PNO $
Loading
Personal Weather Stations






























Interactive Weather Map New forecast layout! Learn more

10-Day Weather Forecast

Advertisements
Track Severe Weather on mobile